createdAt,value
2023-12-04T00:01:18.601Z,94944.34
2023-12-04T00:03:45.903Z,94919.00
2023-12-04T00:06:13.437Z,94903.66
2023-12-04T00:08:40.604Z,94931.81
2023-12-04T00:11:08.070Z,94938.81
2023-12-04T00:13:35.852Z,94950.25
2023-12-04T00:16:02.990Z,94954.53
2023-12-04T00:18:30.182Z,94969.38
2023-12-04T00:20:57.657Z,94944.34
2023-12-04T00:23:24.506Z,94917.63
2023-12-04T00:25:51.210Z,94897.38
2023-12-04T00:28:18.007Z,94911.25
2023-12-04T00:30:45.966Z,94916.31
2023-12-04T00:33:12.824Z,94912.25
2023-12-04T00:35:39.599Z,94902.19
2023-12-04T00:38:06.370Z,94915.31
2023-12-04T00:40:34.450Z,94874.31
2023-12-04T00:43:01.297Z,94862.66
2023-12-04T00:45:28.181Z,94877.41
2023-12-04T00:47:55.048Z,94923.09
2023-12-04T00:50:21.996Z,94941.94
2023-12-04T00:52:49.112Z,94909.34
2023-12-04T00:55:15.896Z,94897.44
2023-12-04T00:57:42.712Z,94957.72
2023-12-04T01:00:10.170Z,94931.25
2023-12-04T01:02:36.921Z,94939.72
2023-12-04T01:05:03.921Z,94883.34
2023-12-04T01:07:30.739Z,94917.13
2023-12-04T01:09:57.532Z,94898.31
2023-12-04T01:12:24.396Z,94886.28
2023-12-04T01:14:51.226Z,94912.94
2023-12-04T01:17:18.020Z,94901.16
2023-12-04T01:19:44.780Z,94872.25
2023-12-04T01:22:11.549Z,94900.44
2023-12-04T01:24:38.400Z,94922.25
2023-12-04T01:27:05.483Z,94913.72
2023-12-04T01:29:33.189Z,94881.16
2023-12-04T01:31:59.965Z,94905.13
2023-12-04T01:34:26.918Z,94920.66
2023-12-04T01:36:53.841Z,94872.69
2023-12-04T01:39:20.684Z,94883.91
2023-12-04T01:41:47.461Z,94877.34
2023-12-04T01:44:14.283Z,94911.75
2023-12-04T01:46:41.617Z,94907.16
2023-12-04T01:49:09.040Z,94881.56
2023-12-04T01:51:36.700Z,94906.66
2023-12-04T01:54:05.684Z,94887.66
2023-12-04T01:56:33.706Z,94883.25
2023-12-04T01:59:01.134Z,94880.94
2023-12-04T02:01:28.579Z,94863.72
2023-12-04T02:03:57.338Z,94880.56
2023-12-04T02:06:24.225Z,94871.00
2023-12-04T02:08:50.960Z,94870.41
2023-12-04T02:11:17.844Z,94862.06
2023-12-04T02:13:44.789Z,94863.25
2023-12-04T02:16:15.985Z,94861.69
2023-12-04T02:18:44.455Z,94859.00
2023-12-04T02:21:11.317Z,94834.09
2023-12-04T02:23:38.124Z,94830.19
2023-12-04T02:26:11.873Z,94842.59
2023-12-04T02:28:39.566Z,94850.72
2023-12-04T02:31:08.216Z,94835.47
2023-12-04T02:33:37.023Z,94806.16
2023-12-04T02:36:06.551Z,94819.50
2023-12-04T02:38:33.779Z,94820.56
2023-12-04T02:41:00.783Z,94803.69
2023-12-04T02:43:27.563Z,94802.78
2023-12-04T02:45:54.478Z,94800.31
2023-12-04T02:48:21.477Z,94809.34
2023-12-04T02:50:48.272Z,94824.03
2023-12-04T02:53:15.064Z,94833.66
2023-12-04T02:55:41.846Z,94801.41
2023-12-04T02:58:08.624Z,94789.19
2023-12-04T03:00:35.520Z,94776.25
2023-12-04T03:03:02.355Z,94780.09
2023-12-04T03:05:29.122Z,94792.34
2023-12-04T03:07:55.877Z,94812.09
2023-12-04T03:10:22.687Z,94809.28
2023-12-04T03:12:49.506Z,94812.78
2023-12-04T03:15:16.471Z,94783.97
2023-12-04T03:17:43.268Z,94749.63
2023-12-04T03:20:10.752Z,94795.53
2023-12-04T03:22:38.294Z,94797.06
2023-12-04T03:25:05.709Z,94787.50
2023-12-04T03:27:32.517Z,94764.69
2023-12-04T03:29:59.352Z,94781.97
2023-12-04T03:32:26.174Z,94804.44
2023-12-04T03:34:52.961Z,94792.28
2023-12-04T03:37:19.710Z,94749.84
2023-12-04T03:39:46.544Z,94734.75
2023-12-04T03:42:13.416Z,94714.69
2023-12-04T03:44:40.180Z,94744.47
2023-12-04T03:47:06.979Z,94770.06
2023-12-04T03:49:33.806Z,94734.63
2023-12-04T03:52:00.727Z,94738.78
2023-12-04T03:54:27.483Z,94738.44
2023-12-04T03:56:54.551Z,94746.06
2023-12-04T03:59:21.490Z,94763.53
2023-12-04T04:01:48.277Z,94771.25
2023-12-04T04:04:15.178Z,94742.53
2023-12-04T04:06:42.019Z,94759.38
2023-12-04T04:09:08.892Z,94734.59
2023-12-04T04:11:36.627Z,94729.69
2023-12-04T04:14:03.348Z,94743.53
2023-12-04T04:16:30.106Z,94730.19
2023-12-04T04:18:57.322Z,94688.81
2023-12-04T04:21:24.164Z,94703.75
2023-12-04T04:23:50.966Z,94735.78
2023-12-04T04:26:17.666Z,94717.69
2023-12-04T04:28:44.498Z,94693.44
2023-12-04T04:31:11.355Z,94681.69
2023-12-04T04:33:38.279Z,94708.72
2023-12-04T04:36:05.733Z,94741.38
2023-12-04T04:38:32.459Z,94728.72
2023-12-04T04:40:59.260Z,94697.91
2023-12-04T04:43:26.098Z,94687.91
2023-12-04T04:45:52.910Z,94707.66
2023-12-04T04:48:21.070Z,94741.19
2023-12-04T04:50:47.821Z,94710.66
2023-12-04T04:53:14.634Z,94702.75
2023-12-04T04:55:47.700Z,94724.97
2023-12-04T04:58:17.300Z,94736.88
2023-12-04T05:00:45.143Z,94704.19
2023-12-04T05:03:11.915Z,94693.47
2023-12-04T05:05:38.692Z,94670.59
2023-12-04T05:08:05.774Z,94693.22
2023-12-04T05:10:32.694Z,94703.59
2023-12-04T05:12:59.951Z,94704.41
2023-12-04T05:15:26.765Z,94697.81
2023-12-04T05:17:54.843Z,94693.47
2023-12-04T05:20:21.647Z,94659.91
2023-12-04T05:22:50.057Z,94639.53
2023-12-04T05:25:16.906Z,94588.34
2023-12-04T05:27:43.730Z,94589.94
2023-12-04T05:30:10.853Z,94653.44
2023-12-04T05:32:37.650Z,94681.16
2023-12-04T05:35:04.762Z,94682.56
2023-12-04T05:37:31.512Z,94661.81
2023-12-04T05:39:58.295Z,94684.31
2023-12-04T05:42:25.028Z,94669.34
2023-12-04T05:44:56.459Z,94647.13
2023-12-04T05:47:23.432Z,94655.69
2023-12-04T05:49:50.232Z,94669.03
2023-12-04T05:52:17.190Z,94682.34
2023-12-04T05:54:44.181Z,94685.56
2023-12-04T05:57:10.910Z,94671.09
2023-12-04T05:59:37.748Z,94682.19
2023-12-04T06:02:04.721Z,94673.66
2023-12-04T06:04:31.549Z,94690.84
2023-12-04T06:06:58.364Z,94667.84
2023-12-04T06:09:25.168Z,94675.66
2023-12-04T06:11:51.972Z,94675.75
2023-12-04T06:14:18.940Z,94663.81
2023-12-04T06:16:46.051Z,94670.91
2023-12-04T06:19:13.532Z,94633.47
2023-12-04T06:21:41.190Z,94620.25
2023-12-04T06:24:09.869Z,94649.66
2023-12-04T06:26:42.315Z,94665.22
2023-12-04T06:29:09.366Z,94641.84
2023-12-04T06:31:36.762Z,94585.66
2023-12-04T06:34:03.858Z,94554.00
2023-12-04T06:36:36.483Z,94567.22
2023-12-04T06:39:05.598Z,94591.44
2023-12-04T06:41:32.633Z,94617.69
2023-12-04T06:43:59.759Z,94595.53
2023-12-04T06:46:30.183Z,94585.91
2023-12-04T06:49:00.801Z,94597.41
2023-12-04T06:51:28.085Z,94576.47
2023-12-04T06:53:54.843Z,94529.44
2023-12-04T06:56:21.596Z,94565.75
2023-12-04T06:58:48.505Z,94591.06
2023-12-04T07:01:15.358Z,94600.31
2023-12-04T07:03:42.274Z,94620.22
2023-12-04T07:06:09.410Z,94623.09
2023-12-04T07:08:36.171Z,94599.59
2023-12-04T07:11:03.100Z,94575.38
2023-12-04T07:13:29.807Z,94597.69
2023-12-04T07:15:56.596Z,94622.50
2023-12-04T07:18:23.432Z,94612.00
2023-12-04T07:20:50.431Z,94606.56
2023-12-04T07:23:17.227Z,94594.31
2023-12-04T07:25:43.982Z,94574.09
2023-12-04T07:28:10.854Z,94593.03
2023-12-04T07:30:37.706Z,94574.59
2023-12-04T07:33:05.883Z,94586.63
2023-12-04T07:35:35.050Z,94594.34
2023-12-04T07:38:01.815Z,94595.94
2023-12-04T07:40:28.581Z,94560.59
2023-12-04T07:42:55.386Z,94544.81
2023-12-04T07:45:22.614Z,94541.78
2023-12-04T07:47:49.565Z,94540.00
2023-12-04T07:50:16.359Z,94566.69
2023-12-04T07:52:43.132Z,94536.75
2023-12-04T07:55:10.003Z,94547.31
2023-12-04T07:57:36.878Z,94562.19
2023-12-04T08:00:04.202Z,94556.16
2023-12-04T08:02:32.056Z,94524.25
2023-12-04T08:05:00.124Z,94553.03
2023-12-04T08:07:26.988Z,94569.66
2023-12-04T08:09:55.183Z,94562.88
2023-12-04T08:12:22.060Z,94561.34
2023-12-04T08:14:48.968Z,94571.47
2023-12-04T08:17:15.810Z,94573.25
2023-12-04T08:19:43.162Z,94566.22
2023-12-04T08:22:10.194Z,94553.69
2023-12-04T08:24:37.137Z,94571.34
2023-12-04T08:27:04.126Z,94553.03
2023-12-04T08:29:30.924Z,94556.63
2023-12-04T08:31:57.801Z,94530.25
2023-12-04T08:34:24.630Z,94518.69
2023-12-04T08:36:51.513Z,94497.22
2023-12-04T08:39:18.278Z,94550.53
2023-12-04T08:41:55.081Z,94554.94
2023-12-04T08:44:28.427Z,94540.94
2023-12-04T08:46:58.968Z,94533.38
2023-12-04T08:49:33.162Z,94536.72
2023-12-04T08:52:06.977Z,94543.88
2023-12-04T08:54:34.438Z,94512.91
2023-12-04T08:57:02.480Z,94549.66
2023-12-04T08:59:30.145Z,94534.91
2023-12-04T09:01:57.093Z,94524.28
2023-12-04T09:04:24.171Z,94508.44
2023-12-04T09:09:20.876Z,94530.09
2023-12-04T09:11:48.812Z,94513.50
2023-12-04T09:14:15.890Z,94520.25
2023-12-04T09:16:43.289Z,94515.25
2023-12-04T09:19:10.285Z,94494.91
2023-12-04T09:21:37.176Z,94497.13
2023-12-04T09:24:04.300Z,94487.72
2023-12-04T09:26:31.140Z,94481.00
2023-12-04T09:28:58.876Z,94484.59
2023-12-04T09:31:25.747Z,94472.81
2023-12-04T09:33:53.297Z,94469.81
2023-12-04T09:36:20.250Z,94518.09
2023-12-04T09:38:47.987Z,94535.13
2023-12-04T09:41:17.033Z,94517.75
2023-12-04T09:43:46.118Z,94523.34
2023-12-04T09:46:13.540Z,94495.16
2023-12-04T09:48:44.423Z,94467.78
2023-12-04T09:51:12.306Z,94463.13
2023-12-04T09:53:40.853Z,94469.56
2023-12-04T09:56:10.367Z,94502.34
2023-12-04T09:58:41.367Z,94488.53
2023-12-04T10:01:08.693Z,94472.38
2023-12-04T10:03:36.894Z,94459.78
2023-12-04T10:06:05.511Z,94446.19
2023-12-04T10:08:32.420Z,94466.81
2023-12-04T10:11:00.128Z,94471.25
2023-12-04T10:13:56.135Z,94465.56
2023-12-04T10:16:15.327Z,94452.09
2023-12-04T10:18:42.475Z,94484.22
2023-12-04T10:21:13.719Z,94476.84
2023-12-04T10:23:45.867Z,94448.44
2023-12-04T10:26:17.119Z,94446.50
2023-12-04T10:29:01.338Z,94448.75
2023-12-04T10:31:32.682Z,94442.94
2023-12-04T10:33:59.514Z,94413.78
2023-12-04T10:36:26.532Z,94410.56
2023-12-04T10:39:01.252Z,94381.91
2023-12-04T10:41:28.719Z,94384.22
2023-12-04T10:44:01.426Z,94400.38
2023-12-04T10:46:37.320Z,94369.09
2023-12-04T10:49:06.798Z,94336.28
2023-12-04T10:51:35.545Z,94307.19
2023-12-04T10:54:02.964Z,94367.44
2023-12-04T10:56:40.807Z,94386.47
2023-12-04T10:59:13.492Z,94338.19
2023-12-04T11:01:43.895Z,94330.28
2023-12-04T11:04:18.555Z,94316.47
2023-12-04T11:06:49.884Z,94296.19
2023-12-04T11:09:19.912Z,94335.31
2023-12-04T11:11:52.361Z,94341.38
2023-12-04T11:14:23.826Z,94313.25
2023-12-04T11:16:55.646Z,94362.22
2023-12-04T11:19:50.819Z,94327.31
2023-12-04T11:22:21.302Z,94336.31
2023-12-04T11:24:49.893Z,94322.84
2023-12-04T11:27:19.264Z,94331.50
2023-12-04T11:29:49.901Z,94321.53
2023-12-04T11:32:20.704Z,94326.34
2023-12-04T11:35:00.507Z,94308.25
2023-12-04T11:37:27.734Z,94313.50
2023-12-04T11:39:55.412Z,94300.91
2023-12-04T11:42:25.137Z,94288.16
2023-12-04T11:44:59.966Z,94303.28
2023-12-04T11:47:29.469Z,94299.03
2023-12-04T11:49:56.400Z,94286.88
2023-12-04T11:52:34.691Z,94243.41
2023-12-04T11:55:07.117Z,94303.88
2023-12-04T11:57:42.027Z,94311.16
2023-12-04T12:00:24.169Z,94309.56
2023-12-04T12:03:15.650Z,94295.44
2023-12-04T12:05:42.263Z,94297.06
2023-12-04T12:08:10.105Z,94318.44
2023-12-04T12:10:38.777Z,94311.41
2023-12-04T12:13:05.912Z,94290.53
2023-12-04T12:15:34.674Z,94296.84
2023-12-04T12:18:01.669Z,94291.63
2023-12-04T12:20:28.665Z,94292.06
2023-12-04T12:22:55.749Z,94275.69
2023-12-04T12:25:24.000Z,94281.16
2023-12-04T12:27:52.084Z,94205.69
2023-12-04T12:30:18.913Z,94263.91
2023-12-04T12:32:45.775Z,94276.41
2023-12-04T12:35:12.884Z,94252.59
2023-12-04T12:37:40.563Z,94214.06
2023-12-04T12:40:11.147Z,94239.53
2023-12-04T12:42:45.293Z,94267.19
2023-12-04T12:45:13.552Z,94183.19
2023-12-04T12:47:44.853Z,94235.28
2023-12-04T12:50:15.061Z,94246.63
2023-12-04T12:52:44.581Z,94213.16
2023-12-04T12:55:11.756Z,94251.63
2023-12-04T12:57:39.014Z,94245.84
2023-12-04T13:00:08.177Z,94259.47
2023-12-04T13:02:37.750Z,94253.44
2023-12-04T13:05:06.025Z,94230.47
2023-12-04T13:07:33.343Z,94251.34
2023-12-04T13:10:00.243Z,94236.94
2023-12-04T13:12:27.110Z,94201.78
2023-12-04T13:14:54.251Z,94219.59
2023-12-04T13:17:21.442Z,94228.78
2023-12-04T13:19:48.682Z,94223.56
2023-12-04T13:22:16.055Z,94201.03
2023-12-04T13:24:42.928Z,94220.38
2023-12-04T13:27:10.426Z,94200.59
2023-12-04T13:29:37.218Z,94207.06
2023-12-04T13:32:05.496Z,94202.56
2023-12-04T13:34:34.731Z,94186.66
2023-12-04T13:37:01.584Z,94192.47
2023-12-04T13:39:37.655Z,94174.19
2023-12-04T13:42:23.675Z,94160.22
2023-12-04T13:44:52.753Z,94197.84
2023-12-04T13:47:19.538Z,94163.13
2023-12-04T13:49:48.000Z,94166.19
2023-12-04T13:52:14.955Z,94148.41
2023-12-04T13:54:48.457Z,94128.22
2023-12-04T13:57:22.341Z,94127.75
2023-12-04T13:59:49.406Z,94131.59
2023-12-04T14:02:16.958Z,94166.25
2023-12-04T14:04:44.608Z,94144.16
2023-12-04T14:07:13.799Z,94130.34
2023-12-04T14:09:41.610Z,94106.66
2023-12-04T14:12:09.573Z,94151.78
2023-12-04T14:14:36.923Z,94167.41
2023-12-04T14:17:05.697Z,94154.41
2023-12-04T14:19:33.356Z,94156.63
2023-12-04T14:22:00.744Z,94108.69
2023-12-04T14:24:27.603Z,94142.66
2023-12-04T14:26:57.381Z,94082.44
2023-12-04T14:29:24.571Z,94119.75
2023-12-04T14:31:51.535Z,94125.50
2023-12-04T14:34:18.499Z,94147.22
2023-12-04T14:36:45.309Z,94151.09
2023-12-04T14:39:13.579Z,94133.75
2023-12-04T14:41:40.538Z,94123.78
2023-12-04T14:44:07.344Z,94119.78
2023-12-04T14:46:34.258Z,94147.94
2023-12-04T14:49:01.048Z,94133.66
2023-12-04T14:51:28.613Z,94172.09
2023-12-04T14:54:14.247Z,94162.59
2023-12-04T14:56:44.686Z,94137.97
2023-12-04T14:59:30.134Z,94168.28
2023-12-04T15:02:15.678Z,94159.38
2023-12-04T15:05:01.586Z,94147.84
2023-12-04T15:07:47.197Z,94129.22
2023-12-04T15:10:49.194Z,94119.38
2023-12-04T15:13:34.789Z,94120.31
2023-12-04T15:16:01.562Z,94113.31
2023-12-04T15:18:39.438Z,94138.75
2023-12-04T15:21:07.909Z,94157.56
2023-12-04T15:23:34.708Z,94153.59
2023-12-04T15:26:02.764Z,94142.47
2023-12-04T15:28:29.747Z,94138.84
2023-12-04T15:30:57.270Z,94108.75
2023-12-04T15:33:27.338Z,94139.66
2023-12-04T15:35:54.221Z,94153.88
2023-12-04T15:38:21.760Z,94108.84
2023-12-04T15:40:48.970Z,94124.47
2023-12-04T15:43:16.305Z,94174.63
2023-12-04T15:45:44.090Z,94133.50
2023-12-04T15:48:12.505Z,94152.72
2023-12-04T15:50:39.540Z,94129.22
2023-12-04T15:53:06.401Z,94100.44
2023-12-04T15:55:33.320Z,94120.16
2023-12-04T15:58:00.227Z,94139.22
2023-12-04T16:00:28.404Z,94119.44
2023-12-04T16:02:55.805Z,94088.94
2023-12-04T16:05:25.253Z,94077.22
2023-12-04T16:07:52.425Z,94065.44
2023-12-04T16:10:19.343Z,94115.56
2023-12-04T16:12:46.496Z,94106.53
2023-12-04T16:15:14.113Z,94104.56
2023-12-04T16:17:41.151Z,94130.13
2023-12-04T16:20:12.536Z,94122.53
2023-12-04T16:22:44.471Z,94091.38
2023-12-04T16:25:19.539Z,94029.00
2023-12-04T16:27:46.970Z,94057.09
2023-12-04T16:30:14.651Z,94072.50
2023-12-04T16:32:41.758Z,94097.34
2023-12-04T16:35:10.208Z,94055.19
2023-12-04T16:37:38.166Z,94044.06
2023-12-04T16:40:05.818Z,94072.94
2023-12-04T16:42:33.481Z,94100.06
2023-12-04T16:45:00.467Z,94095.41
2023-12-04T16:47:27.419Z,94107.78
2023-12-04T16:49:54.650Z,94100.28
2023-12-04T16:52:21.685Z,94088.50
2023-12-04T16:54:52.364Z,94098.94
2023-12-04T16:57:19.458Z,94081.66
2023-12-04T16:59:46.713Z,94058.25
2023-12-04T17:02:13.664Z,94076.13
2023-12-04T17:04:40.807Z,94081.88
2023-12-04T17:07:07.730Z,94099.66
2023-12-04T17:09:35.279Z,94089.91
2023-12-04T17:12:02.387Z,94056.03
2023-12-04T17:14:29.340Z,94062.06
2023-12-04T17:16:56.259Z,94061.78
2023-12-04T17:19:23.150Z,94062.25
2023-12-04T17:21:49.958Z,94067.34
2023-12-04T17:24:16.841Z,94066.56
2023-12-04T17:26:43.597Z,94045.84
2023-12-04T17:29:10.454Z,94022.22
2023-12-04T17:31:40.023Z,94001.84
2023-12-04T17:34:06.944Z,94024.50
2023-12-04T17:36:33.964Z,94035.50
2023-12-04T17:39:00.855Z,94017.03
2023-12-04T17:41:27.671Z,94039.69
2023-12-04T17:43:54.512Z,94074.41
2023-12-04T17:46:21.400Z,94043.75
2023-12-04T17:48:48.973Z,94031.09
2023-12-04T17:51:19.097Z,94001.69
2023-12-04T17:53:45.933Z,94009.88
2023-12-04T17:56:12.679Z,94019.97
2023-12-04T17:58:39.502Z,94015.63
2023-12-04T18:01:07.090Z,94043.47
2023-12-04T18:03:36.646Z,94004.56
2023-12-04T18:06:05.434Z,94008.75
2023-12-04T18:08:34.848Z,94014.19
2023-12-04T18:11:01.875Z,94005.00
2023-12-04T18:13:28.864Z,94013.94
2023-12-04T18:15:56.110Z,94007.63
2023-12-04T18:18:24.568Z,94005.38
2023-12-04T18:20:52.776Z,94009.69
2023-12-04T18:23:19.808Z,93982.56
2023-12-04T18:25:48.427Z,93994.66
2023-12-04T18:28:15.583Z,94023.13
2023-12-04T18:30:43.455Z,94001.47
2023-12-04T18:33:10.850Z,94002.69
2023-12-04T18:35:37.895Z,93970.28
2023-12-04T18:38:18.702Z,93977.47
2023-12-04T18:40:45.894Z,93983.72
2023-12-04T18:43:13.462Z,93984.16
2023-12-04T18:45:40.564Z,93965.22
2023-12-04T18:48:09.721Z,93991.19
2023-12-04T18:50:40.676Z,94004.31
2023-12-04T18:53:10.306Z,94018.59
2023-12-04T18:55:40.526Z,94003.59
2023-12-04T18:58:10.709Z,93990.84
2023-12-04T19:00:40.253Z,94002.22
2023-12-04T19:03:07.221Z,94013.34
2023-12-04T19:05:34.472Z,94014.63
2023-12-04T19:08:03.002Z,93978.47
2023-12-04T19:10:29.852Z,94005.47
2023-12-04T19:12:57.169Z,94005.19
2023-12-04T19:15:25.636Z,93958.97
2023-12-04T19:17:53.571Z,93977.69
2023-12-04T19:20:20.452Z,93975.75
2023-12-04T19:22:47.195Z,93992.91
2023-12-04T19:25:14.878Z,93970.41
2023-12-04T19:27:41.826Z,93919.63
2023-12-04T19:30:09.163Z,93907.06
2023-12-04T19:32:36.312Z,93964.88
2023-12-04T19:35:03.599Z,93971.63
2023-12-04T19:37:30.471Z,93981.22
2023-12-04T19:39:57.226Z,93967.88
2023-12-04T19:42:27.223Z,93983.81
2023-12-04T19:44:57.092Z,93984.22
2023-12-04T19:47:24.199Z,93971.75
2023-12-04T19:49:51.070Z,93967.09
2023-12-04T19:52:17.956Z,93930.09
2023-12-04T19:54:45.162Z,93946.56
2023-12-04T19:57:12.184Z,93981.47
2023-12-04T19:59:38.975Z,93975.88
2023-12-04T20:02:06.404Z,93975.13
2023-12-04T20:04:34.781Z,93952.78
2023-12-04T20:07:01.856Z,93951.69
2023-12-04T20:09:29.231Z,93933.69
2023-12-04T20:11:56.116Z,93967.66
2023-12-04T20:14:23.988Z,93903.94
2023-12-04T20:16:52.343Z,93949.00
2023-12-04T20:19:20.612Z,93943.53
2023-12-04T20:21:47.753Z,93966.44
2023-12-04T20:24:16.053Z,93971.19
2023-12-04T20:26:43.581Z,93950.28
2023-12-04T20:29:10.726Z,93969.09
2023-12-04T20:31:37.654Z,93957.47
2023-12-04T20:34:05.079Z,93952.47
2023-12-04T20:36:31.994Z,93932.47
2023-12-04T20:38:59.094Z,93938.00
2023-12-04T20:41:26.041Z,93933.25
2023-12-04T20:43:52.913Z,93938.75
2023-12-04T20:46:19.876Z,93922.91
2023-12-04T20:48:47.024Z,93944.81
2023-12-04T20:51:14.649Z,93925.97
2023-12-04T20:53:41.636Z,93938.69
2023-12-04T20:56:09.134Z,93929.09
2023-12-04T20:58:36.114Z,93930.38
2023-12-04T21:01:04.194Z,93924.44
2023-12-04T21:03:31.312Z,93916.25
2023-12-04T21:05:58.260Z,93922.41
2023-12-04T21:08:25.256Z,93931.09
2023-12-04T21:10:52.192Z,93944.06
2023-12-04T21:13:19.005Z,93933.00
2023-12-04T21:15:48.050Z,93924.31
2023-12-04T21:18:16.120Z,93925.69
2023-12-04T21:20:44.705Z,93924.69
2023-12-04T21:23:11.726Z,93915.44
2023-12-04T21:25:38.896Z,93885.34
2023-12-04T21:28:07.341Z,93900.94
2023-12-04T21:30:34.689Z,93931.50
2023-12-04T21:33:01.807Z,93926.22
2023-12-04T21:35:28.650Z,93925.97
2023-12-04T21:37:56.662Z,93900.47
2023-12-04T21:40:24.476Z,93887.28
2023-12-04T21:42:51.488Z,93877.72
2023-12-04T21:45:21.231Z,93887.25
2023-12-04T21:47:49.679Z,93890.31
2023-12-04T21:50:16.791Z,93880.97
2023-12-04T21:52:43.702Z,93873.25
2023-12-04T21:55:13.139Z,93870.34
2023-12-04T21:57:40.651Z,93892.47
2023-12-04T22:00:11.867Z,93889.63
2023-12-04T22:02:39.115Z,93892.06
2023-12-04T22:05:06.577Z,93876.00
2023-12-04T22:07:34.172Z,93885.38
2023-12-04T22:10:01.074Z,93887.41
2023-12-04T22:12:28.075Z,93874.81
2023-12-04T22:14:55.101Z,93872.41
2023-12-04T22:17:22.063Z,93867.34
2023-12-04T22:19:49.023Z,93849.75
2023-12-04T22:22:16.883Z,93844.88
2023-12-04T22:24:43.825Z,93838.34
2023-12-04T22:27:10.779Z,93857.47
2023-12-04T22:29:37.853Z,93844.53
2023-12-04T22:32:04.845Z,93851.09
2023-12-04T22:34:32.482Z,93850.56
2023-12-04T22:36:59.339Z,93854.28
2023-12-04T22:39:26.205Z,93848.59
2023-12-04T22:41:53.099Z,93832.81
2023-12-04T22:44:19.898Z,93840.56
2023-12-04T22:46:47.182Z,93824.25
2023-12-04T22:49:14.137Z,93826.16
2023-12-04T22:51:41.153Z,93825.09
2023-12-04T22:54:07.995Z,93834.63
2023-12-04T22:56:34.783Z,93839.63
2023-12-04T22:59:01.711Z,93836.69
2023-12-04T23:01:28.533Z,93827.47
2023-12-04T23:03:56.249Z,93835.28
2023-12-04T23:06:23.905Z,93834.75
2023-12-04T23:08:50.782Z,93821.22
2023-12-04T23:11:18.047Z,93832.09
2023-12-04T23:13:45.077Z,93821.88
2023-12-04T23:16:12.021Z,93803.16
2023-12-04T23:18:39.027Z,93810.84
2023-12-04T23:21:08.436Z,93809.00
2023-12-04T23:23:36.950Z,93823.53
2023-12-04T23:26:04.223Z,93818.25
2023-12-04T23:28:31.136Z,93816.06
2023-12-04T23:30:57.995Z,93820.91
2023-12-04T23:33:25.700Z,93825.94
2023-12-04T23:35:53.298Z,93826.78
2023-12-04T23:38:20.424Z,93814.50
2023-12-04T23:40:47.188Z,93813.03
2023-12-04T23:43:14.042Z,93801.34
2023-12-04T23:45:45.712Z,93783.91
2023-12-04T23:48:20.385Z,93808.91
2023-12-04T23:50:47.579Z,93794.38
2023-12-04T23:53:14.386Z,93796.00
2023-12-04T23:55:41.310Z,93777.97
2023-12-04T23:58:08.269Z,93800.06
